• Join FlightAware (Why Join?)
  • Login
  • US Flag 
01:26AM EDT


 

Airport Tracker/Info


-or-


 

Live Flight TrackerFlight Track Log ✈ CLH298 ✈ 26-Jun-2013 ✈ EDDF / FRA - LIMF / TRN

Flight Track Log - Related Links

Times and Time Zones

All times are in EDT time to prevent confusion due to time zone crossing. See the CLH298 flight status page for this flight to view local times or setup timezone preferences in your user account.

Time Position Orientation Groundspeed Altitude Reporting Facility
EDT Latitude Longitude Course Direction KTS MPH feet Rate Location/Type
07:16AM 49.2235 8.3825 187° South  Level Estimated
07:17AM 49.1088 8.3599 187° South  Level Estimated
07:18AM 48.9941 8.3375 187° South  Level Estimated
07:19AM 48.8793 8.3152 187° South  Level Estimated
07:20AM 48.7646 8.2930 187° South  Level Estimated
07:21AM 48.6499 8.2708 187° South  Level Estimated
07:22AM 48.5351 8.2488 187° South  Level Estimated
07:23AM 48.4204 8.2269 187° South  Level Estimated
07:24AM 48.3056 8.2051 187° South  Level Estimated
07:25AM 48.1909 8.1834 187° South  Level Estimated
07:26AM 48.0761 8.1617 187° South  Level Estimated
07:27AM 47.9614 8.1402 187° South  Level Estimated
07:28AM 47.8466 8.1188 187° South  Level Estimated
07:29AM 47.7318 8.0975 187° South  Level Estimated
07:30AM 47.6171 8.0762 187° South  Level Estimated
07:31AM 47.5023 8.0551 187° South  Level Estimated
07:32AM 47.3875 8.0340 187° South  Level Estimated
07:33AM 47.2727 8.0131 187° South  Level Estimated
07:34AM 47.1579 7.9922 187° South  Level Estimated
07:35AM 47.0431 7.9714 187° South  Level Estimated
07:36AM 46.9283 7.9507 187° South  Level Estimated
07:37AM 46.8135 7.9301 187° South  Level Estimated
07:38AM 46.6987 7.9096 187° South  Level Estimated
07:39AM 46.5839 7.8891 187° South  Level Estimated
07:40AM 46.4691 7.8688 187° South  Level Estimated
07:41AM 46.3543 7.8485 187° South  Level Estimated
07:42AM 46.2395 7.8284 187° South  Level Estimated
07:43AM 46.1246 7.8083 187° South  Level Estimated
07:44AM 46.0098 7.7883 187° South  Level Estimated
07:45AM 45.8950 7.7684 187° South  Level Estimated
07:46AM 45.7802 7.7485 187° South  Level Estimated
07:47AM 45.6653 7.7288 187° South  Level Estimated
07:48AM 45.5505 7.7091 187° South  Level Estimated
07:49AM 45.4356 7.6895 187° South  Level Estimated
07:50AM 45.3208 7.6700 187° South  Level Estimated
07:51AM 45.2059 7.6505 187° South  Level Estimated
07:52AM 45.2008 7.6496 187° South  Level Estimated
07:53AM 45.2008 7.6496 35° Northeast  Level Estimated
07:54AM 45.2008 7.6496 35° Northeast  Level Estimated
07:55AM 45.2008 7.6496 35° Northeast  Level Estimated
07:56AM 45.2008 7.6496 35° Northeast  Level Estimated
07:57AM 45.2008 7.6496 35° Northeast  Level Estimated
07:58AM 45.2008 7.6496 35° Northeast  Level Estimated
07:59AM 45.2008 7.6496 35° Northeast  Level Estimated
08:00AM 45.2008 7.6496 35° Northeast  Level Estimated
08:01AM 45.2008 7.6496 35° Northeast  Level Estimated
08:02AM 45.2008 7.6496 35° Northeast  Level Estimated
08:03AM 45.2008 7.6496 35° Northeast  Level Estimated
08:04AM 45.2008 7.6496 35° Northeast  Level Estimated
08:05AM 45.2008 7.6496 35° Northeast  Level Estimated
08:06AM 45.2008 7.6496 35° Northeast  Level Estimated
08:07AM 45.2008 7.6496 35° Northeast  Level Estimated